sensor_id;sensor_type;location;lat;lon;timestamp;pressure;altitude;pressure_sealevel;temperature
19666;BMP180;9980;51.020;7.772;2024-03-29T00:01:25;95502.00;;;10.10
19666;BMP180;9980;51.020;7.772;2024-03-29T00:03:51;95491.00;;;10.00
19666;BMP180;9980;51.020;7.772;2024-03-29T00:06:19;95493.00;;;10.00
19666;BMP180;9980;51.020;7.772;2024-03-29T00:08:45;95492.00;;;10.00
19666;BMP180;9980;51.020;7.772;2024-03-29T00:11:11;95496.00;;;10.00
19666;BMP180;9980;51.020;7.772;2024-03-29T00:13:37;95496.00;;;9.90
19666;BMP180;9980;51.020;7.772;2024-03-29T00:16:03;95477.00;;;9.90
19666;BMP180;9980;51.020;7.772;2024-03-29T00:18:30;95463.00;;;9.90
19666;BMP180;9980;51.020;7.772;2024-03-29T00:20:56;95473.00;;;9.90
19666;BMP180;9980;51.020;7.772;2024-03-29T00:23:22;95460.00;;;9.90
19666;BMP180;9980;51.020;7.772;2024-03-29T00:25:48;95473.00;;;9.90
19666;BMP180;9980;51.020;7.772;2024-03-29T00:28:14;95491.00;;;9.90
19666;BMP180;9980;51.020;7.772;2024-03-29T00:30:40;95464.00;;;9.90
19666;BMP180;9980;51.020;7.772;2024-03-29T00:33:06;95469.00;;;9.90
19666;BMP180;9980;51.020;7.772;2024-03-29T00:35:32;95458.00;;;9.90
19666;BMP180;9980;51.020;7.772;2024-03-29T00:37:58;95448.00;;;9.90
19666;BMP180;9980;51.020;7.772;2024-03-29T00:40:24;95449.00;;;9.90
19666;BMP180;9980;51.020;7.772;2024-03-29T00:42:50;95462.00;;;9.90
19666;BMP180;9980;51.020;7.772;2024-03-29T00:45:16;95462.00;;;9.90
19666;BMP180;9980;51.020;7.772;2024-03-29T00:47:42;95447.00;;;10.00
19666;BMP180;9980;51.020;7.772;2024-03-29T00:50:09;95444.00;;;10.00
19666;BMP180;9980;51.020;7.772;2024-03-29T00:52:36;95445.00;;;10.00
19666;BMP180;9980;51.020;7.772;2024-03-29T00:55:02;95448.00;;;9.90
19666;BMP180;9980;51.020;7.772;2024-03-29T00:57:29;95472.00;;;10.00
19666;BMP180;9980;51.020;7.772;2024-03-29T00:59:55;95482.00;;;9.90
19666;BMP180;9980;51.020;7.772;2024-03-29T01:02:23;95469.00;;;9.90
19666;BMP180;9980;51.020;7.772;2024-03-29T01:04:50;95480.00;;;9.90
19666;BMP180;9980;51.020;7.772;2024-03-29T01:07:16;95483.00;;;9.90
19666;BMP180;9980;51.020;7.772;2024-03-29T01:09:43;95463.00;;;9.80
19666;BMP180;9980;51.020;7.772;2024-03-29T01:12:10;95467.00;;;9.90
19666;BMP180;9980;51.020;7.772;2024-03-29T01:14:37;95474.00;;;9.80
19666;BMP180;9980;51.020;7.772;2024-03-29T01:17:03;95464.00;;;9.80
19666;BMP180;9980;51.020;7.772;2024-03-29T01:19:29;95466.00;;;9.90
19666;BMP180;9980;51.020;7.772;2024-03-29T01:21:55;95468.00;;;9.90
19666;BMP180;9980;51.020;7.772;2024-03-29T01:24:21;95471.00;;;9.90
19666;BMP180;9980;51.020;7.772;2024-03-29T01:26:47;95446.00;;;9.90
19666;BMP180;9980;51.020;7.772;2024-03-29T01:29:13;95482.00;;;9.90
19666;BMP180;9980;51.020;7.772;2024-03-29T01:31:39;95476.00;;;10.00
19666;BMP180;9980;51.020;7.772;2024-03-29T01:34:05;95484.00;;;10.00
19666;BMP180;9980;51.020;7.772;2024-03-29T01:36:31;95489.00;;;10.00
19666;BMP180;9980;51.020;7.772;2024-03-29T01:38:57;95497.00;;;10.00
19666;BMP180;9980;51.020;7.772;2024-03-29T01:41:24;95488.00;;;10.10
19666;BMP180;9980;51.020;7.772;2024-03-29T01:43:54;95507.00;;;10.10
19666;BMP180;9980;51.020;7.772;2024-03-29T01:46:23;95504.00;;;10.10
19666;BMP180;9980;51.020;7.772;2024-03-29T01:48:53;95491.00;;;10.20
19666;BMP180;9980;51.020;7.772;2024-03-29T01:51:23;95488.00;;;10.20
19666;BMP180;9980;51.020;7.772;2024-03-29T01:53:52;95475.00;;;10.20
19666;BMP180;9980;51.020;7.772;2024-03-29T01:56:24;95447.00;;;10.30
19666;BMP180;9980;51.020;7.772;2024-03-29T01:58:52;95458.00;;;10.30
19666;BMP180;9980;51.020;7.772;2024-03-29T02:01:20;95458.00;;;10.30
19666;BMP180;9980;51.020;7.772;2024-03-29T02:03:47;95466.00;;;10.40
19666;BMP180;9980;51.020;7.772;2024-03-29T02:06:14;95450.00;;;10.40
19666;BMP180;9980;51.020;7.772;2024-03-29T02:08:40;95459.00;;;10.40
19666;BMP180;9980;51.020;7.772;2024-03-29T02:11:06;95446.00;;;10.40
19666;BMP180;9980;51.020;7.772;2024-03-29T02:13:32;95439.00;;;10.40
19666;BMP180;9980;51.020;7.772;2024-03-29T02:15:58;95443.00;;;10.50
19666;BMP180;9980;51.020;7.772;2024-03-29T02:18:24;95467.00;;;10.50
19666;BMP180;9980;51.020;7.772;2024-03-29T02:20:50;95460.00;;;10.50
19666;BMP180;9980;51.020;7.772;2024-03-29T02:23:29;95466.00;;;10.60
19666;BMP180;9980;51.020;7.772;2024-03-29T02:25:56;95446.00;;;10.60
19666;BMP180;9980;51.020;7.772;2024-03-29T02:28:25;95440.00;;;10.60
19666;BMP180;9980;51.020;7.772;2024-03-29T02:30:51;95430.00;;;10.60
19666;BMP180;9980;51.020;7.772;2024-03-29T02:33:18;95440.00;;;10.70
19666;BMP180;9980;51.020;7.772;2024-03-29T02:35:46;95424.00;;;10.70
19666;BMP180;9980;51.020;7.772;2024-03-29T02:38:12;95407.00;;;10.70
19666;BMP180;9980;51.020;7.772;2024-03-29T02:40:38;95403.00;;;10.80
19666;BMP180;9980;51.020;7.772;2024-03-29T02:43:04;95373.00;;;10.80
19666;BMP180;9980;51.020;7.772;2024-03-29T02:45:30;95395.00;;;10.80
19666;BMP180;9980;51.020;7.772;2024-03-29T02:47:56;95373.00;;;10.90
19666;BMP180;9980;51.020;7.772;2024-03-29T02:50:21;95368.00;;;10.90
19666;BMP180;9980;51.020;7.772;2024-03-29T02:52:47;95389.00;;;10.90
19666;BMP180;9980;51.020;7.772;2024-03-29T02:55:13;95396.00;;;10.90
19666;BMP180;9980;51.020;7.772;2024-03-29T02:57:40;95382.00;;;10.90
19666;BMP180;9980;51.020;7.772;2024-03-29T03:00:07;95384.00;;;10.90
19666;BMP180;9980;51.020;7.772;2024-03-29T03:02:41;95400.00;;;10.90
19666;BMP180;9980;51.020;7.772;2024-03-29T03:05:08;95394.00;;;10.90
19666;BMP180;9980;51.020;7.772;2024-03-29T03:07:35;95390.00;;;10.90
19666;BMP180;9980;51.020;7.772;2024-03-29T03:10:33;95377.00;;;10.90
19666;BMP180;9980;51.020;7.772;2024-03-29T03:13:17;95387.00;;;10.90
19666;BMP180;9980;51.020;7.772;2024-03-29T03:15:44;95374.00;;;10.80
19666;BMP180;9980;51.020;7.772;2024-03-29T03:18:09;95371.00;;;10.80
19666;BMP180;9980;51.020;7.772;2024-03-29T03:20:35;95372.00;;;10.80
19666;BMP180;9980;51.020;7.772;2024-03-29T03:23:04;95377.00;;;10.80
19666;BMP180;9980;51.020;7.772;2024-03-29T03:25:30;95374.00;;;10.80
19666;BMP180;9980;51.020;7.772;2024-03-29T03:27:56;95389.00;;;10.80
19666;BMP180;9980;51.020;7.772;2024-03-29T03:30:22;95384.00;;;10.80
19666;BMP180;9980;51.020;7.772;2024-03-29T03:32:48;95392.00;;;10.80
19666;BMP180;9980;51.020;7.772;2024-03-29T03:35:14;95390.00;;;10.80
19666;BMP180;9980;51.020;7.772;2024-03-29T03:37:40;95390.00;;;10.80
19666;BMP180;9980;51.020;7.772;2024-03-29T03:40:07;95403.00;;;10.80
19666;BMP180;9980;51.020;7.772;2024-03-29T03:42:33;95368.00;;;10.80
19666;BMP180;9980;51.020;7.772;2024-03-29T03:44:59;95395.00;;;10.80
19666;BMP180;9980;51.020;7.772;2024-03-29T03:47:25;95409.00;;;10.80
19666;BMP180;9980;51.020;7.772;2024-03-29T03:49:51;95413.00;;;10.90
19666;BMP180;9980;51.020;7.772;2024-03-29T03:52:17;95399.00;;;10.90
19666;BMP180;9980;51.020;7.772;2024-03-29T03:54:43;95391.00;;;10.90
19666;BMP180;9980;51.020;7.772;2024-03-29T03:57:09;95381.00;;;10.90
19666;BMP180;9980;51.020;7.772;2024-03-29T03:59:35;95371.00;;;10.90
19666;BMP180;9980;51.020;7.772;2024-03-29T04:02:01;95378.00;;;10.90
19666;BMP180;9980;51.020;7.772;2024-03-29T04:04:27;95387.00;;;11.00
19666;BMP180;9980;51.020;7.772;2024-03-29T04:06:53;95389.00;;;10.90
19666;BMP180;9980;51.020;7.772;2024-03-29T04:09:18;95388.00;;;11.00
19666;BMP180;9980;51.020;7.772;2024-03-29T04:11:44;95395.00;;;11.00
19666;BMP180;9980;51.020;7.772;2024-03-29T04:14:10;95394.00;;;11.00
19666;BMP180;9980;51.020;7.772;2024-03-29T04:16:36;95388.00;;;11.00
19666;BMP180;9980;51.020;7.772;2024-03-29T04:19:03;95390.00;;;11.00
19666;BMP180;9980;51.020;7.772;2024-03-29T04:21:29;95381.00;;;11.00
19666;BMP180;9980;51.020;7.772;2024-03-29T04:23:55;95378.00;;;11.00
19666;BMP180;9980;51.020;7.772;2024-03-29T04:26:22;95367.00;;;11.00
19666;BMP180;9980;51.020;7.772;2024-03-29T04:28:48;95378.00;;;11.00
19666;BMP180;9980;51.020;7.772;2024-03-29T04:31:14;95369.00;;;11.00
19666;BMP180;9980;51.020;7.772;2024-03-29T04:33:40;95352.00;;;11.00
19666;BMP180;9980;51.020;7.772;2024-03-29T04:36:06;95351.00;;;11.00
19666;BMP180;9980;51.020;7.772;2024-03-29T04:38:32;95358.00;;;11.00
19666;BMP180;9980;51.020;7.772;2024-03-29T04:40:59;95372.00;;;11.00
19666;BMP180;9980;51.020;7.772;2024-03-29T04:43:27;95362.00;;;11.00
19666;BMP180;9980;51.020;7.772;2024-03-29T04:46:09;95338.00;;;10.90
19666;BMP180;9980;51.020;7.772;2024-03-29T04:48:39;95346.00;;;10.90
19666;BMP180;9980;51.020;7.772;2024-03-29T04:51:08;95343.00;;;10.90
19666;BMP180;9980;51.020;7.772;2024-03-29T04:53:36;95355.00;;;10.90
19666;BMP180;9980;51.020;7.772;2024-03-29T04:56:03;95360.00;;;10.90
19666;BMP180;9980;51.020;7.772;2024-03-29T04:58:29;95345.00;;;10.90
19666;BMP180;9980;51.020;7.772;2024-03-29T05:00:56;95345.00;;;10.90
19666;BMP180;9980;51.020;7.772;2024-03-29T05:03:23;95343.00;;;10.90
19666;BMP180;9980;51.020;7.772;2024-03-29T05:05:53;95328.00;;;10.90
19666;BMP180;9980;51.020;7.772;2024-03-29T05:08:20;95348.00;;;10.90
19666;BMP180;9980;51.020;7.772;2024-03-29T05:10:49;95357.00;;;10.90
19666;BMP180;9980;51.020;7.772;2024-03-29T05:13:19;95357.00;;;10.90
19666;BMP180;9980;51.020;7.772;2024-03-29T05:15:46;95346.00;;;10.90
19666;BMP180;9980;51.020;7.772;2024-03-29T05:18:13;95352.00;;;10.90
19666;BMP180;9980;51.020;7.772;2024-03-29T05:20:39;95352.00;;;10.90
19666;BMP180;9980;51.020;7.772;2024-03-29T05:23:07;95347.00;;;10.90
19666;BMP180;9980;51.020;7.772;2024-03-29T05:25:33;95341.00;;;10.90
19666;BMP180;9980;51.020;7.772;2024-03-29T05:27:59;95341.00;;;10.90
19666;BMP180;9980;51.020;7.772;2024-03-29T05:30:25;95348.00;;;10.90
19666;BMP180;9980;51.020;7.772;2024-03-29T05:32:52;95338.00;;;10.90
19666;BMP180;9980;51.020;7.772;2024-03-29T05:35:18;95333.00;;;10.90
19666;BMP180;9980;51.020;7.772;2024-03-29T05:37:44;95335.00;;;10.90
19666;BMP180;9980;51.020;7.772;2024-03-29T05:40:15;95333.00;;;10.90
19666;BMP180;9980;51.020;7.772;2024-03-29T05:42:41;95343.00;;;10.90
19666;BMP180;9980;51.020;7.772;2024-03-29T05:45:29;95336.00;;;10.80
19666;BMP180;9980;51.020;7.772;2024-03-29T05:47:58;95357.00;;;10.90
19666;BMP180;9980;51.020;7.772;2024-03-29T05:50:25;95344.00;;;10.90
19666;BMP180;9980;51.020;7.772;2024-03-29T05:52:52;95356.00;;;10.90
19666;BMP180;9980;51.020;7.772;2024-03-29T05:55:18;95374.00;;;10.90
19666;BMP180;9980;51.020;7.772;2024-03-29T05:57:45;95373.00;;;10.90
19666;BMP180;9980;51.020;7.772;2024-03-29T06:00:13;95366.00;;;10.90
19666;BMP180;9980;51.020;7.772;2024-03-29T06:02:42;95354.00;;;10.90
19666;BMP180;9980;51.020;7.772;2024-03-29T06:05:11;95353.00;;;10.90
19666;BMP180;9980;51.020;7.772;2024-03-29T06:07:37;95357.00;;;10.90
19666;BMP180;9980;51.020;7.772;2024-03-29T06:10:04;95370.00;;;10.90
19666;BMP180;9980;51.020;7.772;2024-03-29T06:12:32;95382.00;;;10.90
19666;BMP180;9980;51.020;7.772;2024-03-29T06:14:58;95361.00;;;10.90
19666;BMP180;9980;51.020;7.772;2024-03-29T06:17:42;95370.00;;;11.00
19666;BMP180;9980;51.020;7.772;2024-03-29T06:20:09;95376.00;;;11.00
19666;BMP180;9980;51.020;7.772;2024-03-29T06:22:35;95365.00;;;11.00
19666;BMP180;9980;51.020;7.772;2024-03-29T06:25:01;95347.00;;;11.00
19666;BMP180;9980;51.020;7.772;2024-03-29T06:27:34;95357.00;;;11.00
19666;BMP180;9980;51.020;7.772;2024-03-29T06:30:01;95354.00;;;11.10
19666;BMP180;9980;51.020;7.772;2024-03-29T06:32:28;95361.00;;;11.10
19666;BMP180;9980;51.020;7.772;2024-03-29T06:34:54;95372.00;;;11.10
19666;BMP180;9980;51.020;7.772;2024-03-29T06:37:20;95354.00;;;11.20
19666;BMP180;9980;51.020;7.772;2024-03-29T06:39:51;95371.00;;;11.20
19666;BMP180;9980;51.020;7.772;2024-03-29T06:42:17;95358.00;;;11.20
19666;BMP180;9980;51.020;7.772;2024-03-29T06:44:44;95358.00;;;11.20
19666;BMP180;9980;51.020;7.772;2024-03-29T06:47:09;95355.00;;;11.30
19666;BMP180;9980;51.020;7.772;2024-03-29T06:49:36;95378.00;;;11.30
19666;BMP180;9980;51.020;7.772;2024-03-29T06:52:02;95370.00;;;11.40
19666;BMP180;9980;51.020;7.772;2024-03-29T06:54:28;95369.00;;;11.40
19666;BMP180;9980;51.020;7.772;2024-03-29T06:56:55;95368.00;;;11.40
19666;BMP180;9980;51.020;7.772;2024-03-29T06:59:22;95378.00;;;11.50
19666;BMP180;9980;51.020;7.772;2024-03-29T07:01:48;95380.00;;;11.50
19666;BMP180;9980;51.020;7.772;2024-03-29T07:04:19;95371.00;;;11.50
19666;BMP180;9980;51.020;7.772;2024-03-29T07:06:46;95386.00;;;11.60
19666;BMP180;9980;51.020;7.772;2024-03-29T07:09:18;95378.00;;;11.60
19666;BMP180;9980;51.020;7.772;2024-03-29T07:11:50;95374.00;;;11.60
19666;BMP180;9980;51.020;7.772;2024-03-29T07:14:18;95391.00;;;11.70
19666;BMP180;9980;51.020;7.772;2024-03-29T07:16:46;95391.00;;;11.70
19666;BMP180;9980;51.020;7.772;2024-03-29T07:19:12;95408.00;;;11.70
19666;BMP180;9980;51.020;7.772;2024-03-29T07:21:40;95398.00;;;11.80
19666;BMP180;9980;51.020;7.772;2024-03-29T07:24:06;95407.00;;;11.80
19666;BMP180;9980;51.020;7.772;2024-03-29T07:26:33;95408.00;;;11.80
19666;BMP180;9980;51.020;7.772;2024-03-29T07:28:59;95425.00;;;11.90
19666;BMP180;9980;51.020;7.772;2024-03-29T07:31:25;95402.00;;;11.90
19666;BMP180;9980;51.020;7.772;2024-03-29T07:33:51;95396.00;;;11.90
19666;BMP180;9980;51.020;7.772;2024-03-29T07:36:17;95407.00;;;12.00
19666;BMP180;9980;51.020;7.772;2024-03-29T07:38:44;95418.00;;;12.00
19666;BMP180;9980;51.020;7.772;2024-03-29T07:41:10;95421.00;;;12.00
19666;BMP180;9980;51.020;7.772;2024-03-29T07:43:40;95419.00;;;12.10
19666;BMP180;9980;51.020;7.772;2024-03-29T07:46:07;95430.00;;;12.10
19666;BMP180;9980;51.020;7.772;2024-03-29T07:48:35;95423.00;;;12.10
19666;BMP180;9980;51.020;7.772;2024-03-29T07:51:02;95439.00;;;12.20
19666;BMP180;9980;51.020;7.772;2024-03-29T07:53:28;95426.00;;;12.20
19666;BMP180;9980;51.020;7.772;2024-03-29T07:55:54;95446.00;;;12.20
19666;BMP180;9980;51.020;7.772;2024-03-29T07:58:21;95430.00;;;12.30
19666;BMP180;9980;51.020;7.772;2024-03-29T08:00:47;95430.00;;;12.30
19666;BMP180;9980;51.020;7.772;2024-03-29T08:03:14;95438.00;;;12.30
19666;BMP180;9980;51.020;7.772;2024-03-29T08:05:40;95439.00;;;12.40
19666;BMP180;9980;51.020;7.772;2024-03-29T08:08:06;95433.00;;;12.40
19666;BMP180;9980;51.020;7.772;2024-03-29T08:10:32;95463.00;;;12.40
19666;BMP180;9980;51.020;7.772;2024-03-29T08:12:58;95454.00;;;12.50
19666;BMP180;9980;51.020;7.772;2024-03-29T08:15:27;95448.00;;;12.50
19666;BMP180;9980;51.020;7.772;2024-03-29T08:17:53;95458.00;;;12.60
19666;BMP180;9980;51.020;7.772;2024-03-29T08:20:19;95444.00;;;12.60
19666;BMP180;9980;51.020;7.772;2024-03-29T08:22:45;95445.00;;;12.60
19666;BMP180;9980;51.020;7.772;2024-03-29T08:25:11;95448.00;;;12.70
19666;BMP180;9980;51.020;7.772;2024-03-29T08:27:37;95441.00;;;12.70
19666;BMP180;9980;51.020;7.772;2024-03-29T08:30:03;95446.00;;;12.70
19666;BMP180;9980;51.020;7.772;2024-03-29T08:32:29;95434.00;;;12.80
19666;BMP180;9980;51.020;7.772;2024-03-29T08:34:55;95448.00;;;12.80
19666;BMP180;9980;51.020;7.772;2024-03-29T08:37:22;95433.00;;;12.80
19666;BMP180;9980;51.020;7.772;2024-03-29T08:39:48;95444.00;;;12.90
19666;BMP180;9980;51.020;7.772;2024-03-29T08:42:14;95450.00;;;12.90
19666;BMP180;9980;51.020;7.772;2024-03-29T08:44:40;95454.00;;;12.90
19666;BMP180;9980;51.020;7.772;2024-03-29T08:47:06;95458.00;;;13.00
19666;BMP180;9980;51.020;7.772;2024-03-29T08:49:32;95443.00;;;13.00
19666;BMP180;9980;51.020;7.772;2024-03-29T08:51:58;95461.00;;;13.00
19666;BMP180;9980;51.020;7.772;2024-03-29T08:54:26;95460.00;;;13.10
19666;BMP180;9980;51.020;7.772;2024-03-29T08:56:53;95430.00;;;13.10
19666;BMP180;9980;51.020;7.772;2024-03-29T08:59:19;95441.00;;;13.10
19666;BMP180;9980;51.020;7.772;2024-03-29T09:01:46;95434.00;;;13.20
19666;BMP180;9980;51.020;7.772;2024-03-29T09:04:15;95433.00;;;13.20
19666;BMP180;9980;51.020;7.772;2024-03-29T09:06:42;95445.00;;;13.20
19666;BMP180;9980;51.020;7.772;2024-03-29T09:09:08;95452.00;;;13.30
19666;BMP180;9980;51.020;7.772;2024-03-29T09:11:35;95460.00;;;13.30
19666;BMP180;9980;51.020;7.772;2024-03-29T09:14:02;95458.00;;;13.40
19666;BMP180;9980;51.020;7.772;2024-03-29T09:16:29;95463.00;;;13.40
19666;BMP180;9980;51.020;7.772;2024-03-29T09:18:56;95458.00;;;13.50
19666;BMP180;9980;51.020;7.772;2024-03-29T09:21:23;95448.00;;;13.50
19666;BMP180;9980;51.020;7.772;2024-03-29T09:23:49;95440.00;;;13.50
19666;BMP180;9980;51.020;7.772;2024-03-29T09:26:18;95463.00;;;13.60
19666;BMP180;9980;51.020;7.772;2024-03-29T09:28:45;95475.00;;;13.60
19666;BMP180;9980;51.020;7.772;2024-03-29T09:31:11;95498.00;;;13.60
19666;BMP180;9980;51.020;7.772;2024-03-29T09:33:37;95494.00;;;13.70
19666;BMP180;9980;51.020;7.772;2024-03-29T09:36:03;95500.00;;;13.70
19666;BMP180;9980;51.020;7.772;2024-03-29T09:38:29;95494.00;;;13.70
19666;BMP180;9980;51.020;7.772;2024-03-29T09:41:15;95491.00;;;13.70
19666;BMP180;9980;51.020;7.772;2024-03-29T09:43:46;95507.00;;;13.70
19666;BMP180;9980;51.020;7.772;2024-03-29T09:46:16;95505.00;;;13.80
19666;BMP180;9980;51.020;7.772;2024-03-29T09:48:45;95512.00;;;13.80
19666;BMP180;9980;51.020;7.772;2024-03-29T09:51:14;95493.00;;;13.80
19666;BMP180;9980;51.020;7.772;2024-03-29T09:53:44;95510.00;;;13.90
19666;BMP180;9980;51.020;7.772;2024-03-29T09:56:10;95501.00;;;13.90
19666;BMP180;9980;51.020;7.772;2024-03-29T09:58:38;95516.00;;;13.90
19666;BMP180;9980;51.020;7.772;2024-03-29T10:01:06;95513.00;;;13.90
19666;BMP180;9980;51.020;7.772;2024-03-29T10:03:39;95516.00;;;13.90
19666;BMP180;9980;51.020;7.772;2024-03-29T10:06:07;95514.00;;;13.90
19666;BMP180;9980;51.020;7.772;2024-03-29T10:08:38;95507.00;;;13.90
19666;BMP180;9980;51.020;7.772;2024-03-29T10:11:04;95497.00;;;14.00
19666;BMP180;9980;51.020;7.772;2024-03-29T10:13:30;95498.00;;;14.00
19666;BMP180;9980;51.020;7.772;2024-03-29T10:15:56;95515.00;;;14.00
19666;BMP180;9980;51.020;7.772;2024-03-29T10:18:27;95500.00;;;14.00
19666;BMP180;9980;51.020;7.772;2024-03-29T10:21:00;95523.00;;;14.00
19666;BMP180;9980;51.020;7.772;2024-03-29T10:23:31;95527.00;;;14.00
19666;BMP180;9980;51.020;7.772;2024-03-29T10:25:58;95513.00;;;14.10
19666;BMP180;9980;51.020;7.772;2024-03-29T10:28:30;95519.00;;;14.10
19666;BMP180;9980;51.020;7.772;2024-03-29T10:30:57;95524.00;;;14.10
19666;BMP180;9980;51.020;7.772;2024-03-29T10:33:27;95527.00;;;14.10
19666;BMP180;9980;51.020;7.772;2024-03-29T10:35:53;95527.00;;;14.10
19666;BMP180;9980;51.020;7.772;2024-03-29T10:38:22;95530.00;;;14.20
19666;BMP180;9980;51.020;7.772;2024-03-29T10:40:49;95534.00;;;14.20
19666;BMP180;9980;51.020;7.772;2024-03-29T10:43:16;95548.00;;;14.20
19666;BMP180;9980;51.020;7.772;2024-03-29T10:45:43;95537.00;;;14.20
19666;BMP180;9980;51.020;7.772;2024-03-29T10:48:09;95530.00;;;14.20
19666;BMP180;9980;51.020;7.772;2024-03-29T10:50:37;95523.00;;;14.30
19666;BMP180;9980;51.020;7.772;2024-03-29T10:53:03;95509.00;;;14.30
19666;BMP180;9980;51.020;7.772;2024-03-29T10:55:29;95513.00;;;14.40
19666;BMP180;9980;51.020;7.772;2024-03-29T10:57:58;95508.00;;;14.40
19666;BMP180;9980;51.020;7.772;2024-03-29T11:00:25;95503.00;;;14.50
19666;BMP180;9980;51.020;7.772;2024-03-29T11:03:20;95512.00;;;14.50
19666;BMP180;9980;51.020;7.772;2024-03-29T11:05:50;95502.00;;;14.60
19666;BMP180;9980;51.020;7.772;2024-03-29T11:08:22;95495.00;;;14.70
19666;BMP180;9980;51.020;7.772;2024-03-29T11:10:51;95496.00;;;14.70
19666;BMP180;9980;51.020;7.772;2024-03-29T11:13:47;95508.00;;;14.70
19666;BMP180;9980;51.020;7.772;2024-03-29T11:16:14;95500.00;;;14.80
19666;BMP180;9980;51.020;7.772;2024-03-29T11:18:45;95492.00;;;14.90
19666;BMP180;9980;51.020;7.772;2024-03-29T11:21:15;95500.00;;;14.90
19666;BMP180;9980;51.020;7.772;2024-03-29T11:23:52;95507.00;;;15.00
19666;BMP180;9980;51.020;7.772;2024-03-29T11:26:19;95500.00;;;15.00
19666;BMP180;9980;51.020;7.772;2024-03-29T11:28:50;95495.00;;;15.00
19666;BMP180;9980;51.020;7.772;2024-03-29T11:31:17;95506.00;;;15.10
19666;BMP180;9980;51.020;7.772;2024-03-29T11:36:14;95487.00;;;15.10
19666;BMP180;9980;51.020;7.772;2024-03-29T11:38:42;95491.00;;;15.20
19666;BMP180;9980;51.020;7.772;2024-03-29T11:41:19;95508.00;;;15.20
19666;BMP180;9980;51.020;7.772;2024-03-29T11:43:46;95499.00;;;15.20
19666;BMP180;9980;51.020;7.772;2024-03-29T11:46:14;95503.00;;;15.30
19666;BMP180;9980;51.020;7.772;2024-03-29T11:48:41;95502.00;;;15.30
19666;BMP180;9980;51.020;7.772;2024-03-29T11:51:12;95522.00;;;15.30
19666;BMP180;9980;51.020;7.772;2024-03-29T11:53:40;95521.00;;;15.40
19666;BMP180;9980;51.020;7.772;2024-03-29T11:56:07;95534.00;;;15.40
19666;BMP180;9980;51.020;7.772;2024-03-29T11:58:34;95530.00;;;15.40
19666;BMP180;9980;51.020;7.772;2024-03-29T12:01:01;95545.00;;;15.50
19666;BMP180;9980;51.020;7.772;2024-03-29T12:03:30;95531.00;;;15.50
19666;BMP180;9980;51.020;7.772;2024-03-29T12:05:59;95528.00;;;15.50
19666;BMP180;9980;51.020;7.772;2024-03-29T12:08:30;95533.00;;;15.60
19666;BMP180;9980;51.020;7.772;2024-03-29T12:11:02;95529.00;;;15.60
19666;BMP180;9980;51.020;7.772;2024-03-29T12:13:29;95535.00;;;15.70
19666;BMP180;9980;51.020;7.772;2024-03-29T12:15:56;95529.00;;;15.70
19666;BMP180;9980;51.020;7.772;2024-03-29T12:18:24;95531.00;;;15.70
19666;BMP180;9980;51.020;7.772;2024-03-29T12:20:52;95538.00;;;15.80
19666;BMP180;9980;51.020;7.772;2024-03-29T12:23:20;95520.00;;;15.80
19666;BMP180;9980;51.020;7.772;2024-03-29T12:25:50;95532.00;;;15.90
19666;BMP180;9980;51.020;7.772;2024-03-29T12:28:18;95544.00;;;15.90
19666;BMP180;9980;51.020;7.772;2024-03-29T12:30:46;95534.00;;;16.00
19666;BMP180;9980;51.020;7.772;2024-03-29T12:33:18;95532.00;;;16.00
19666;BMP180;9980;51.020;7.772;2024-03-29T12:35:50;95553.00;;;16.00
19666;BMP180;9980;51.020;7.772;2024-03-29T12:38:20;95567.00;;;16.10
19666;BMP180;9980;51.020;7.772;2024-03-29T12:40:50;95562.00;;;16.10
19666;BMP180;9980;51.020;7.772;2024-03-29T12:43:22;95572.00;;;16.10
19666;BMP180;9980;51.020;7.772;2024-03-29T12:45:50;95573.00;;;16.20
19666;BMP180;9980;51.020;7.772;2024-03-29T12:48:19;95589.00;;;16.20
19666;BMP180;9980;51.020;7.772;2024-03-29T12:50:47;95588.00;;;16.10
19666;BMP180;9980;51.020;7.772;2024-03-29T12:53:15;95590.00;;;16.10
19666;BMP180;9980;51.020;7.772;2024-03-29T12:55:43;95600.00;;;16.10
19666;BMP180;9980;51.020;7.772;2024-03-29T12:58:16;95600.00;;;16.10
19666;BMP180;9980;51.020;7.772;2024-03-29T13:00:45;95605.00;;;16.10
19666;BMP180;9980;51.020;7.772;2024-03-29T13:03:12;95600.00;;;16.00
19666;BMP180;9980;51.020;7.772;2024-03-29T13:05:40;95593.00;;;16.00
19666;BMP180;9980;51.020;7.772;2024-03-29T13:08:14;95611.00;;;16.00
19666;BMP180;9980;51.020;7.772;2024-03-29T13:10:44;95615.00;;;16.00
19666;BMP180;9980;51.020;7.772;2024-03-29T13:13:11;95633.00;;;16.00
19666;BMP180;9980;51.020;7.772;2024-03-29T13:15:39;95616.00;;;16.00
19666;BMP180;9980;51.020;7.772;2024-03-29T13:18:06;95624.00;;;16.00
19666;BMP180;9980;51.020;7.772;2024-03-29T13:20:36;95635.00;;;15.90
19666;BMP180;9980;51.020;7.772;2024-03-29T13:23:06;95621.00;;;16.00
19666;BMP180;9980;51.020;7.772;2024-03-29T13:25:32;95631.00;;;16.00
19666;BMP180;9980;51.020;7.772;2024-03-29T13:27:58;95635.00;;;16.00
19666;BMP180;9980;51.020;7.772;2024-03-29T13:30:26;95624.00;;;16.00
19666;BMP180;9980;51.020;7.772;2024-03-29T13:32:53;95624.00;;;16.00
19666;BMP180;9980;51.020;7.772;2024-03-29T13:35:20;95618.00;;;16.00
19666;BMP180;9980;51.020;7.772;2024-03-29T13:37:50;95624.00;;;16.00
19666;BMP180;9980;51.020;7.772;2024-03-29T13:40:20;95620.00;;;16.00
19666;BMP180;9980;51.020;7.772;2024-03-29T13:42:46;95594.00;;;16.00
19666;BMP180;9980;51.020;7.772;2024-03-29T13:45:12;95608.00;;;16.00
19666;BMP180;9980;51.020;7.772;2024-03-29T13:47:42;95630.00;;;15.90
19666;BMP180;9980;51.020;7.772;2024-03-29T13:50:10;95638.00;;;15.90
19666;BMP180;9980;51.020;7.772;2024-03-29T13:52:38;95622.00;;;15.90
19666;BMP180;9980;51.020;7.772;2024-03-29T13:55:05;95628.00;;;15.90
19666;BMP180;9980;51.020;7.772;2024-03-29T13:57:31;95637.00;;;15.90
19666;BMP180;9980;51.020;7.772;2024-03-29T13:59:58;95617.00;;;15.90
19666;BMP180;9980;51.020;7.772;2024-03-29T14:02:25;95623.00;;;15.90
19666;BMP180;9980;51.020;7.772;2024-03-29T14:04:54;95640.00;;;15.90
19666;BMP180;9980;51.020;7.772;2024-03-29T14:07:21;95644.00;;;15.90
19666;BMP180;9980;51.020;7.772;2024-03-29T14:09:50;95631.00;;;15.80
19666;BMP180;9980;51.020;7.772;2024-03-29T14:12:16;95644.00;;;15.80
19666;BMP180;9980;51.020;7.772;2024-03-29T14:14:44;95639.00;;;15.80
19666;BMP180;9980;51.020;7.772;2024-03-29T14:17:14;95654.00;;;15.80
19666;BMP180;9980;51.020;7.772;2024-03-29T14:19:40;95643.00;;;15.90
19666;BMP180;9980;51.020;7.772;2024-03-29T14:22:07;95629.00;;;15.90
19666;BMP180;9980;51.020;7.772;2024-03-29T14:24:34;95632.00;;;15.90
19666;BMP180;9980;51.020;7.772;2024-03-29T14:27:03;95632.00;;;15.90